createdAt,value
2023-01-31T00:01:22.299Z,10.23
2023-01-31T00:03:53.476Z,14.90
2023-01-31T00:06:29.325Z,15.63
2023-01-31T00:08:57.386Z,12.60
2023-01-31T00:11:26.340Z,15.17
2023-01-31T00:13:54.271Z,19.33
2023-01-31T00:16:22.148Z,17.30
2023-01-31T00:18:49.376Z,15.10
2023-01-31T00:21:26.482Z,12.17
2023-01-31T00:23:54.333Z,8.97
2023-01-31T00:26:27.575Z,13.33
2023-01-31T00:28:55.998Z,4.40
2023-01-31T00:31:24.644Z,12.53
2023-01-31T00:33:52.941Z,16.80
2023-01-31T00:36:24.465Z,13.67
2023-01-31T00:38:56.619Z,16.60
2023-01-31T00:41:25.386Z,13.10
2023-01-31T00:43:52.222Z,17.70
2023-01-31T00:46:22.321Z,20.50
2023-01-31T00:48:49.289Z,16.27
2023-01-31T00:51:16.526Z,15.13
2023-01-31T00:53:43.187Z,22.77
2023-01-31T00:56:12.950Z,13.03
2023-01-31T00:58:40.059Z,12.40
2023-01-31T01:01:28.197Z,13.40
2023-01-31T01:03:56.623Z,11.20
2023-01-31T01:06:23.912Z,19.27
2023-01-31T01:08:50.549Z,15.57
2023-01-31T01:11:20.260Z,7.77
2023-01-31T01:13:47.391Z,13.63
2023-01-31T01:16:17.146Z,16.83
2023-01-31T01:18:46.577Z,22.60
2023-01-31T01:21:17.797Z,14.63
2023-01-31T01:23:46.443Z,13.50
2023-01-31T01:26:18.679Z,11.63
2023-01-31T01:28:45.912Z,9.70
2023-01-31T01:31:14.278Z,17.53
2023-01-31T01:33:41.190Z,13.03
2023-01-31T01:36:11.661Z,12.60
2023-01-31T01:38:38.651Z,15.00
2023-01-31T01:41:05.807Z,15.70
2023-01-31T01:43:47.255Z,16.10
2023-01-31T01:46:19.665Z,18.83
2023-01-31T01:48:50.930Z,19.37
2023-01-31T01:51:19.407Z,23.87
2023-01-31T01:53:50.068Z,16.40
2023-01-31T01:56:21.579Z,23.77
2023-01-31T01:59:16.891Z,18.97
2023-01-31T02:01:45.936Z,7.70
2023-01-31T02:04:18.858Z,19.23
2023-01-31T02:06:46.650Z,14.93
2023-01-31T02:09:27.664Z,17.70
2023-01-31T02:11:54.667Z,13.53
2023-01-31T02:14:22.088Z,19.93
2023-01-31T02:16:48.811Z,9.57
2023-01-31T02:19:52.544Z,13.80
2023-01-31T02:22:52.905Z,24.63
2023-01-31T02:25:25.594Z,8.77
2023-01-31T02:28:15.243Z,8.97
2023-01-31T02:30:44.945Z,13.47
2023-01-31T02:33:14.736Z,9.23
2023-01-31T02:36:26.870Z,19.17
2023-01-31T02:39:12.915Z,12.60
2023-01-31T02:42:12.972Z,17.13
2023-01-31T02:45:07.043Z,13.60
2023-01-31T02:48:05.286Z,12.77
2023-01-31T02:50:45.650Z,13.80
2023-01-31T02:53:31.157Z,12.07
2023-01-31T02:56:19.241Z,11.87
2023-01-31T02:58:57.983Z,12.43
2023-01-31T03:01:31.998Z,14.33
2023-01-31T03:04:08.027Z,14.43
2023-01-31T03:06:34.705Z,17.10
2023-01-31T03:09:07.137Z,18.67
2023-01-31T03:12:01.618Z,14.27
2023-01-31T03:15:06.300Z,15.17
2023-01-31T03:18:07.562Z,19.90
2023-01-31T03:20:44.111Z,20.77
2023-01-31T03:23:16.917Z,14.40
2023-01-31T03:25:44.849Z,20.20
2023-01-31T03:28:17.957Z,20.70
2023-01-31T03:31:01.982Z,15.47
2023-01-31T03:33:33.928Z,16.50
2023-01-31T03:36:24.497Z,15.47
2023-01-31T03:39:04.512Z,19.97
2023-01-31T03:42:02.892Z,16.37
2023-01-31T03:44:57.775Z,13.50
2023-01-31T03:47:43.330Z,28.53
2023-01-31T03:50:18.767Z,17.93
2023-01-31T03:53:10.164Z,18.33
2023-01-31T03:55:53.642Z,14.67
2023-01-31T03:58:25.884Z,22.03
2023-01-31T04:00:54.797Z,15.40
2023-01-31T04:03:30.200Z,17.70
2023-01-31T04:05:57.114Z,11.67
2023-01-31T04:08:24.460Z,17.17
2023-01-31T04:10:51.739Z,14.43
2023-01-31T04:13:18.597Z,12.20
2023-01-31T04:15:45.509Z,17.83
2023-01-31T04:18:12.197Z,16.73
2023-01-31T04:20:38.880Z,30.23
2023-01-31T04:23:05.669Z,11.77
2023-01-31T04:25:33.518Z,16.97
2023-01-31T04:28:00.235Z,15.13
2023-01-31T04:30:27.005Z,21.60
2023-01-31T04:32:54.710Z,9.80
2023-01-31T04:35:21.831Z,17.87
2023-01-31T04:37:48.960Z,11.07
2023-01-31T04:40:15.698Z,16.73
2023-01-31T04:42:42.402Z,17.73
2023-01-31T04:45:09.536Z,18.07
2023-01-31T04:47:36.265Z,18.53
2023-01-31T04:50:03.079Z,16.27
2023-01-31T04:52:29.774Z,13.17
2023-01-31T04:54:56.462Z,13.30
2023-01-31T04:57:23.442Z,11.03
2023-01-31T04:59:50.438Z,18.63
2023-01-31T05:02:17.789Z,18.37
2023-01-31T05:04:44.625Z,28.63
2023-01-31T05:07:11.319Z,20.07
2023-01-31T05:09:37.992Z,10.53
2023-01-31T05:12:05.222Z,16.53
2023-01-31T05:14:32.692Z,11.17
2023-01-31T05:16:59.531Z,18.77
2023-01-31T05:19:26.197Z,15.03
2023-01-31T05:21:55.607Z,16.00
2023-01-31T05:24:23.084Z,16.00
2023-01-31T05:26:51.643Z,10.73
2023-01-31T05:29:19.299Z,13.70
2023-01-31T05:31:46.124Z,14.47
2023-01-31T05:34:15.309Z,22.47
2023-01-31T05:36:45.012Z,17.90
2023-01-31T05:39:11.804Z,14.33
2023-01-31T05:41:38.439Z,16.07
2023-01-31T05:44:05.320Z,11.67
2023-01-31T05:46:32.378Z,11.73
2023-01-31T05:48:59.062Z,15.97
2023-01-31T05:51:25.755Z,11.93
2023-01-31T05:53:52.443Z,25.63
2023-01-31T05:56:19.089Z,13.20
2023-01-31T05:58:50.366Z,18.17
2023-01-31T06:01:19.071Z,11.73
2023-01-31T06:03:46.757Z,17.87
2023-01-31T06:06:14.119Z,22.13
2023-01-31T06:08:42.102Z,12.17
2023-01-31T06:11:13.751Z,20.17
2023-01-31T06:13:44.781Z,13.47
2023-01-31T06:16:12.596Z,13.20
2023-01-31T06:18:39.537Z,12.57
2023-01-31T06:21:06.422Z,16.13
2023-01-31T06:23:34.466Z,17.13
2023-01-31T06:26:01.515Z,13.33
2023-01-31T06:28:28.435Z,15.03
2023-01-31T06:30:55.605Z,12.10
2023-01-31T06:33:24.510Z,13.73
2023-01-31T06:36:01.602Z,12.53
2023-01-31T06:38:29.323Z,8.90
2023-01-31T06:40:56.714Z,11.07
2023-01-31T06:43:23.494Z,25.43
2023-01-31T06:45:50.158Z,20.97
2023-01-31T06:48:16.889Z,14.00
2023-01-31T06:50:44.605Z,15.67
2023-01-31T06:53:11.367Z,17.73
2023-01-31T06:55:38.908Z,11.37
2023-01-31T06:58:05.635Z,18.73
2023-01-31T07:00:32.854Z,9.40
2023-01-31T07:02:59.756Z,8.67
2023-01-31T07:05:26.440Z,17.67
2023-01-31T07:07:53.112Z,8.23
2023-01-31T07:10:19.884Z,17.07
2023-01-31T07:12:46.626Z,15.20
2023-01-31T07:15:13.687Z,11.57
2023-01-31T07:17:40.476Z,19.03
2023-01-31T07:20:07.906Z,12.07
2023-01-31T07:22:34.541Z,15.90
2023-01-31T07:25:01.192Z,12.87
2023-01-31T07:27:28.063Z,11.23
2023-01-31T07:29:54.885Z,13.50
2023-01-31T07:32:21.580Z,12.70
2023-01-31T07:34:48.542Z,16.97
2023-01-31T07:37:15.177Z,29.00
2023-01-31T07:39:41.848Z,26.20
2023-01-31T07:42:08.800Z,21.67
2023-01-31T07:44:35.448Z,16.50
2023-01-31T07:47:02.078Z,13.20
2023-01-31T07:49:28.694Z,16.20
2023-01-31T07:51:55.481Z,13.27
2023-01-31T07:54:22.224Z,12.53
2023-01-31T07:56:48.997Z,15.20
2023-01-31T07:59:17.175Z,13.07
2023-01-31T08:02:02.477Z,9.47
2023-01-31T08:04:29.508Z,11.97
2023-01-31T08:06:56.452Z,15.90
2023-01-31T08:09:24.966Z,14.77
2023-01-31T08:11:51.993Z,17.40
2023-01-31T08:14:23.611Z,9.23
2023-01-31T08:16:50.474Z,13.13
2023-01-31T08:19:17.317Z,9.63
2023-01-31T08:21:44.012Z,20.00
2023-01-31T08:24:10.752Z,13.67
2023-01-31T08:26:37.460Z,14.57
2023-01-31T08:29:04.269Z,15.83
2023-01-31T08:31:31.598Z,12.73
2023-01-31T08:33:58.549Z,17.20
2023-01-31T08:36:29.530Z,22.73
2023-01-31T08:38:56.484Z,16.43
2023-01-31T08:41:25.318Z,16.53
2023-01-31T08:43:56.711Z,21.53
2023-01-31T08:46:25.886Z,20.53
2023-01-31T08:48:52.688Z,12.10
2023-01-31T08:51:19.710Z,9.53
2023-01-31T08:53:46.476Z,15.37
2023-01-31T08:56:14.040Z,16.20
2023-01-31T08:58:42.088Z,10.30
2023-01-31T09:01:17.476Z,11.27
2023-01-31T09:03:45.985Z,19.73
2023-01-31T09:06:16.034Z,14.40
2023-01-31T09:08:42.894Z,13.27
2023-01-31T09:11:09.879Z,19.73
2023-01-31T09:13:36.972Z,13.60
2023-01-31T09:16:05.097Z,15.67
2023-01-31T09:18:33.610Z,19.00
2023-01-31T09:21:08.616Z,14.87
2023-01-31T09:23:36.260Z,16.30
2023-01-31T09:26:03.633Z,16.50
2023-01-31T09:28:30.872Z,16.87
2023-01-31T09:31:04.147Z,11.07
2023-01-31T09:33:33.351Z,17.97
2023-01-31T09:36:02.382Z,13.57
2023-01-31T09:38:29.593Z,17.50
2023-01-31T09:40:58.520Z,11.90
2023-01-31T09:43:30.986Z,12.77
2023-01-31T09:46:02.509Z,8.27
2023-01-31T09:48:34.879Z,12.80
2023-01-31T09:51:02.939Z,13.67
2023-01-31T09:53:36.396Z,10.13
2023-01-31T09:56:54.564Z,16.83
2023-01-31T09:59:52.567Z,15.90
2023-01-31T10:02:28.413Z,16.77
2023-01-31T10:05:11.394Z,11.03
2023-01-31T10:07:59.146Z,9.13
2023-01-31T10:10:59.177Z,7.13
2023-01-31T10:13:37.284Z,16.10
2023-01-31T10:16:17.886Z,18.60
2023-01-31T10:18:50.282Z,19.67
2023-01-31T10:21:20.237Z,14.07
2023-01-31T10:23:55.918Z,18.43
2023-01-31T10:26:34.769Z,9.43
2023-01-31T10:29:05.341Z,11.50
2023-01-31T10:31:58.628Z,9.27
2023-01-31T10:34:29.308Z,16.40
2023-01-31T10:37:07.760Z,9.60
2023-01-31T10:39:40.939Z,13.33
2023-01-31T10:42:32.972Z,10.97
2023-01-31T10:45:08.800Z,11.80
2023-01-31T10:47:47.486Z,12.50
2023-01-31T10:50:22.985Z,14.07
2023-01-31T10:53:01.855Z,14.37
2023-01-31T10:55:49.443Z,12.23
2023-01-31T10:58:22.252Z,17.87
2023-01-31T11:00:49.748Z,16.10
2023-01-31T11:03:17.036Z,12.27
2023-01-31T11:05:55.853Z,14.63
2023-01-31T11:08:49.513Z,15.27
2023-01-31T11:11:19.174Z,16.43
2023-01-31T11:13:57.433Z,15.87
2023-01-31T11:16:25.527Z,21.77
2023-01-31T11:18:53.612Z,20.23
2023-01-31T11:21:29.959Z,12.70
2023-01-31T11:24:05.366Z,22.47
2023-01-31T11:26:38.396Z,14.93
2023-01-31T11:29:18.079Z,17.40
2023-01-31T11:31:47.576Z,17.50
2023-01-31T11:34:25.677Z,15.83
2023-01-31T11:36:53.065Z,20.93
2023-01-31T11:39:33.077Z,18.73
2023-01-31T11:42:16.947Z,18.43
2023-01-31T11:45:03.381Z,12.63
2023-01-31T11:47:40.306Z,12.07
2023-01-31T11:50:07.976Z,14.80
2023-01-31T11:52:35.470Z,18.63
2023-01-31T11:55:07.767Z,14.87
2023-01-31T11:57:37.057Z,17.63
2023-01-31T12:00:29.246Z,14.53
2023-01-31T12:03:03.235Z,18.13
2023-01-31T12:05:45.485Z,18.27
2023-01-31T12:08:31.847Z,23.10
2023-01-31T12:10:59.469Z,22.00
2023-01-31T12:13:28.849Z,18.73
2023-01-31T12:16:00.144Z,15.60
2023-01-31T12:18:39.088Z,14.63
2023-01-31T12:21:27.949Z,15.53
2023-01-31T12:24:31.058Z,16.00
2023-01-31T12:27:28.576Z,13.83
2023-01-31T12:30:13.220Z,22.90
2023-01-31T12:33:08.998Z,10.87
2023-01-31T12:35:53.758Z,15.77
2023-01-31T12:38:36.601Z,18.20
2023-01-31T12:41:29.358Z,15.33
2023-01-31T12:44:10.469Z,19.80
2023-01-31T12:47:09.954Z,15.10
2023-01-31T12:49:59.152Z,15.27
2023-01-31T12:52:32.060Z,16.97
2023-01-31T12:55:28.854Z,18.17
2023-01-31T12:58:19.091Z,20.67
2023-01-31T13:01:02.519Z,15.10
2023-01-31T13:03:44.435Z,12.63
2023-01-31T13:06:15.461Z,15.63
2023-01-31T13:09:07.770Z,20.10
2023-01-31T13:11:52.633Z,14.03
2023-01-31T13:14:26.433Z,20.13
2023-01-31T13:16:58.361Z,19.60
2023-01-31T13:19:52.264Z,11.60
2023-01-31T13:22:23.996Z,18.27
2023-01-31T13:25:15.695Z,15.33
2023-01-31T13:27:46.533Z,14.10
2023-01-31T13:30:31.695Z,11.20
2023-01-31T13:33:00.908Z,13.83
2023-01-31T13:35:39.798Z,13.90
2023-01-31T13:38:12.840Z,11.57
2023-01-31T13:40:52.296Z,13.33
2023-01-31T13:43:20.208Z,13.27
2023-01-31T13:46:00.814Z,12.33
2023-01-31T13:48:42.614Z,19.53
2023-01-31T13:51:29.049Z,10.00
2023-01-31T13:54:15.211Z,16.60
2023-01-31T13:56:42.626Z,13.20
2023-01-31T13:59:11.108Z,17.10
2023-01-31T14:01:49.964Z,18.17
2023-01-31T14:04:17.621Z,10.10
2023-01-31T14:06:56.022Z,16.90
2023-01-31T14:09:42.757Z,14.80
2023-01-31T14:12:18.078Z,16.10
2023-01-31T14:14:53.334Z,9.10
2023-01-31T14:17:29.438Z,11.40
2023-01-31T14:19:56.674Z,8.13
2023-01-31T14:22:35.296Z,12.23
2023-01-31T14:25:10.933Z,13.90
2023-01-31T14:27:52.676Z,11.63
2023-01-31T14:30:40.800Z,16.93
2023-01-31T14:33:13.450Z,16.80
2023-01-31T14:36:05.964Z,20.07
2023-01-31T14:38:41.705Z,15.40
2023-01-31T14:41:36.227Z,12.80
2023-01-31T14:44:40.585Z,14.43
2023-01-31T14:47:31.497Z,14.90
2023-01-31T14:51:05.915Z,12.30
2023-01-31T14:54:04.965Z,11.87
2023-01-31T14:56:46.413Z,8.70
2023-01-31T14:59:32.822Z,27.90
2023-01-31T15:02:00.461Z,12.47
2023-01-31T15:04:28.397Z,13.83
2023-01-31T15:06:56.404Z,8.00
2023-01-31T15:09:24.648Z,9.17
2023-01-31T15:11:56.515Z,8.17
2023-01-31T15:14:45.133Z,7.80
2023-01-31T15:17:33.709Z,11.03
2023-01-31T15:20:18.701Z,11.83
2023-01-31T15:22:46.632Z,9.70
2023-01-31T15:25:26.305Z,18.13
2023-01-31T15:27:55.882Z,13.80
2023-01-31T15:30:23.378Z,10.27
2023-01-31T15:32:57.937Z,13.53
2023-01-31T15:35:34.608Z,19.83
2023-01-31T15:38:23.453Z,13.03
2023-01-31T15:41:07.110Z,17.47
2023-01-31T15:43:38.941Z,14.77
2023-01-31T15:46:22.659Z,13.63
2023-01-31T15:48:50.083Z,12.40
2023-01-31T15:51:16.847Z,11.63
2023-01-31T15:53:44.054Z,9.90
2023-01-31T15:56:30.309Z,11.87
2023-01-31T15:58:58.165Z,14.10
2023-01-31T16:01:30.277Z,10.30
2023-01-31T16:03:59.316Z,15.10
2023-01-31T16:06:33.889Z,15.73
2023-01-31T16:09:02.722Z,13.53
2023-01-31T16:11:33.634Z,6.70
2023-01-31T16:14:03.524Z,9.27
2023-01-31T16:16:31.344Z,11.73
2023-01-31T16:18:59.700Z,15.23
2023-01-31T16:21:42.740Z,7.30
2023-01-31T16:24:15.515Z,14.63
2023-01-31T16:27:03.843Z,11.50
2023-01-31T16:29:38.247Z,10.17
2023-01-31T16:32:19.674Z,9.30
2023-01-31T16:34:59.623Z,7.60
2023-01-31T16:37:35.545Z,12.87
2023-01-31T16:40:21.225Z,11.60
2023-01-31T16:42:48.213Z,8.00
2023-01-31T16:45:32.474Z,6.07
2023-01-31T16:48:32.430Z,4.97
2023-01-31T16:51:19.089Z,6.00
2023-01-31T16:53:45.872Z,3.17
2023-01-31T16:56:16.951Z,2.80
2023-01-31T16:58:54.053Z,7.63
2023-01-31T17:01:32.329Z,5.30
2023-01-31T17:04:05.270Z,3.67
2023-01-31T17:06:32.804Z,11.17
2023-01-31T17:09:00.557Z,4.33
2023-01-31T17:11:41.544Z,4.63
2023-01-31T17:14:09.361Z,5.10
2023-01-31T17:16:36.057Z,13.13
2023-01-31T17:19:02.724Z,7.00
2023-01-31T17:21:31.843Z,7.60
2023-01-31T17:23:59.290Z,5.87
2023-01-31T17:26:26.048Z,8.00
2023-01-31T17:29:01.526Z,5.90
2023-01-31T17:31:30.077Z,16.43
2023-01-31T17:33:57.274Z,6.00
2023-01-31T17:36:24.033Z,6.10
2023-01-31T17:38:52.678Z,3.07
2023-01-31T17:41:24.400Z,5.50
2023-01-31T17:43:51.156Z,3.97
2023-01-31T17:46:19.193Z,4.10
2023-01-31T17:48:45.930Z,6.20
2023-01-31T17:51:13.096Z,3.57
2023-01-31T17:53:49.393Z,5.13
2023-01-31T17:56:17.780Z,7.30
2023-01-31T17:58:44.658Z,7.10
2023-01-31T18:01:14.123Z,5.50
2023-01-31T18:03:41.933Z,3.43
2023-01-31T18:06:09.749Z,3.87
2023-01-31T18:08:36.476Z,3.80
2023-01-31T18:11:09.030Z,5.93
2023-01-31T18:13:37.928Z,4.93
2023-01-31T18:16:09.357Z,6.83
2023-01-31T18:18:37.160Z,4.87
2023-01-31T18:21:05.477Z,8.33
2023-01-31T18:23:32.988Z,5.57
2023-01-31T18:25:59.727Z,4.87
2023-01-31T18:28:26.518Z,3.97
2023-01-31T18:30:53.253Z,6.00
2023-01-31T18:33:19.969Z,4.40
2023-01-31T18:35:56.693Z,3.40
2023-01-31T18:38:23.370Z,5.90
2023-01-31T18:40:50.220Z,3.00
2023-01-31T18:43:16.941Z,5.90
2023-01-31T18:45:43.617Z,8.23
2023-01-31T18:48:10.307Z,13.33
2023-01-31T18:50:37.491Z,12.00
2023-01-31T18:53:04.861Z,10.27
2023-01-31T18:55:31.508Z,18.80
2023-01-31T18:57:58.495Z,4.17
2023-01-31T19:00:25.246Z,2.70
2023-01-31T19:02:53.044Z,5.03
2023-01-31T19:05:21.652Z,3.73
2023-01-31T19:07:48.790Z,2.50
2023-01-31T19:10:15.647Z,9.63
2023-01-31T19:12:42.346Z,5.90
2023-01-31T19:15:11.046Z,6.90
2023-01-31T19:17:37.850Z,5.03
2023-01-31T19:20:05.398Z,3.07
2023-01-31T19:22:32.260Z,9.43
2023-01-31T19:24:59.003Z,3.43
2023-01-31T19:27:26.020Z,5.43
2023-01-31T19:29:52.777Z,5.03
2023-01-31T19:32:19.795Z,2.03
2023-01-31T19:34:46.689Z,1.90
2023-01-31T19:37:13.367Z,2.10
2023-01-31T19:39:40.065Z,7.03
2023-01-31T19:42:07.611Z,2.27
2023-01-31T19:44:34.265Z,4.00
2023-01-31T19:47:01.042Z,3.83
2023-01-31T19:49:28.061Z,6.23
2023-01-31T19:51:54.841Z,11.30
2023-01-31T19:54:22.615Z,6.77
2023-01-31T19:56:49.370Z,4.17
2023-01-31T19:59:16.032Z,4.57
2023-01-31T20:01:42.751Z,2.40
2023-01-31T20:04:09.429Z,4.10
2023-01-31T20:06:36.119Z,2.63
2023-01-31T20:09:08.129Z,3.57
2023-01-31T20:11:36.557Z,4.43
2023-01-31T20:14:04.431Z,3.00
2023-01-31T20:16:31.365Z,4.33
2023-01-31T20:19:00.722Z,9.23
2023-01-31T20:21:27.585Z,3.23
2023-01-31T20:23:54.232Z,2.90
2023-01-31T20:26:24.067Z,4.00
2023-01-31T20:28:51.684Z,4.10
2023-01-31T20:31:19.014Z,2.83
2023-01-31T20:33:45.838Z,6.10
2023-01-31T20:36:12.927Z,3.47
2023-01-31T20:38:40.303Z,3.30
2023-01-31T20:41:08.621Z,3.83
2023-01-31T20:43:36.561Z,4.27
2023-01-31T20:46:11.942Z,4.43
2023-01-31T20:48:39.720Z,5.90
2023-01-31T20:51:06.833Z,7.67
2023-01-31T20:53:34.239Z,4.73
2023-01-31T20:56:03.641Z,5.13
2023-01-31T20:58:33.244Z,15.37
2023-01-31T21:01:00.573Z,43.63
2023-01-31T21:03:28.206Z,20.33
2023-01-31T21:05:59.060Z,44.77
2023-01-31T21:08:26.598Z,45.00
2023-01-31T21:10:55.963Z,23.13
2023-01-31T21:13:24.290Z,5.90
2023-01-31T21:15:56.393Z,7.23
2023-01-31T21:18:26.371Z,3.00
2023-01-31T21:20:53.295Z,4.03
2023-01-31T21:23:19.968Z,3.30
2023-01-31T21:25:46.809Z,4.20
2023-01-31T21:28:13.707Z,2.80
2023-01-31T21:30:41.054Z,5.60
2023-01-31T21:33:08.155Z,2.70
2023-01-31T21:35:34.908Z,3.20
2023-01-31T21:38:01.639Z,2.40
2023-01-31T21:40:28.382Z,2.67
2023-01-31T21:42:55.231Z,6.73
2023-01-31T21:45:42.157Z,2.93
2023-01-31T21:48:29.299Z,2.50
2023-01-31T21:50:57.292Z,2.33
2023-01-31T21:53:24.164Z,2.53
2023-01-31T21:55:50.812Z,2.37
2023-01-31T21:58:17.492Z,2.70
2023-01-31T22:00:44.338Z,2.40
2023-01-31T22:03:11.437Z,2.00
2023-01-31T22:05:38.176Z,4.30
2023-01-31T22:08:05.013Z,2.80
2023-01-31T22:10:31.928Z,1.80
2023-01-31T22:12:58.585Z,2.50
2023-01-31T22:15:25.334Z,2.23
2023-01-31T22:17:53.148Z,2.97
2023-01-31T22:20:20.402Z,2.23
2023-01-31T22:22:48.555Z,3.47
2023-01-31T22:25:15.318Z,2.80
2023-01-31T22:27:41.987Z,3.03
2023-01-31T22:30:16.033Z,2.60
2023-01-31T22:32:43.500Z,2.87
2023-01-31T22:35:10.416Z,2.90
2023-01-31T22:37:37.094Z,3.00
2023-01-31T22:40:04.113Z,2.73
2023-01-31T22:42:30.749Z,2.87
2023-01-31T22:44:57.399Z,5.83
2023-01-31T22:47:24.778Z,3.77
2023-01-31T22:49:51.615Z,3.23
2023-01-31T22:52:18.274Z,3.60
2023-01-31T22:54:44.925Z,3.63
2023-01-31T22:57:11.662Z,3.60
2023-01-31T22:59:38.389Z,5.50
2023-01-31T23:02:05.242Z,4.93
2023-01-31T23:04:31.935Z,7.47
2023-01-31T23:06:58.638Z,5.00
2023-01-31T23:09:25.391Z,6.77
2023-01-31T23:11:52.039Z,3.70
2023-01-31T23:14:18.761Z,3.83
2023-01-31T23:17:03.945Z,5.93
2023-01-31T23:19:30.653Z,5.53
2023-01-31T23:21:57.316Z,4.07
2023-01-31T23:24:24.052Z,4.87
2023-01-31T23:26:50.910Z,6.10
2023-01-31T23:29:17.661Z,4.60
2023-01-31T23:31:44.440Z,5.80
2023-01-31T23:34:11.333Z,4.03
2023-01-31T23:36:38.041Z,4.87
2023-01-31T23:39:05.879Z,5.23
2023-01-31T23:41:32.550Z,5.13
2023-01-31T23:43:59.241Z,4.57
2023-01-31T23:46:25.963Z,3.33
2023-01-31T23:48:52.753Z,3.57
2023-01-31T23:51:19.470Z,3.43
2023-01-31T23:53:46.133Z,3.73
2023-01-31T23:56:13.037Z,4.33
2023-01-31T23:58:39.715Z,5.27
